sensor_id;sensor_type;location;lat;lon;timestamp;temperature;humidity
27803;DHT22;15182;48.174;11.562;2023-02-26T00:00:49;6.20;92.30
27803;DHT22;15182;48.174;11.562;2023-02-26T00:03:20;6.10;92.30
27803;DHT22;15182;48.174;11.562;2023-02-26T00:05:52;6.20;92.30
27803;DHT22;15182;48.174;11.562;2023-02-26T00:08:28;6.10;92.40
27803;DHT22;15182;48.174;11.562;2023-02-26T00:11:04;6.10;92.40
27803;DHT22;15182;48.174;11.562;2023-02-26T00:13:37;6.10;92.30
27803;DHT22;15182;48.174;11.562;2023-02-26T00:16:17;6.10;92.30
27803;DHT22;15182;48.174;11.562;2023-02-26T00:18:55;6.10;92.30
27803;DHT22;15182;48.174;11.562;2023-02-26T00:21:30;6.10;92.20
27803;DHT22;15182;48.174;11.562;2023-02-26T00:24:04;6.10;92.20
27803;DHT22;15182;48.174;11.562;2023-02-26T00:26:37;6.10;92.20
27803;DHT22;15182;48.174;11.562;2023-02-26T00:29:11;6.10;92.30
27803;DHT22;15182;48.174;11.562;2023-02-26T00:31:44;6.10;92.30
27803;DHT22;15182;48.174;11.562;2023-02-26T00:34:18;6.10;92.30
27803;DHT22;15182;48.174;11.562;2023-02-26T00:36:57;6.10;92.40
27803;DHT22;15182;48.174;11.562;2023-02-26T00:39:43;6.10;92.40
27803;DHT22;15182;48.174;11.562;2023-02-26T00:42:19;6.10;92.40
27803;DHT22;15182;48.174;11.562;2023-02-26T00:44:52;6.10;92.40
27803;DHT22;15182;48.174;11.562;2023-02-26T00:47:27;6.10;92.40
27803;DHT22;15182;48.174;11.562;2023-02-26T00:50:10;6.10;92.70
27803;DHT22;15182;48.174;11.562;2023-02-26T00:52:49;6.10;92.30
27803;DHT22;15182;48.174;11.562;2023-02-26T00:55:29;6.00;92.20
27803;DHT22;15182;48.174;11.562;2023-02-26T00:58:01;6.00;92.20
27803;DHT22;15182;48.174;11.562;2023-02-26T01:00:32;6.00;92.20
27803;DHT22;15182;48.174;11.562;2023-02-26T01:03:07;6.00;92.30
27803;DHT22;15182;48.174;11.562;2023-02-26T01:05:40;6.00;92.30
27803;DHT22;15182;48.174;11.562;2023-02-26T01:08:21;6.00;92.20
27803;DHT22;15182;48.174;11.562;2023-02-26T01:10:57;5.90;92.10
27803;DHT22;15182;48.174;11.562;2023-02-26T01:13:29;5.90;92.10
27803;DHT22;15182;48.174;11.562;2023-02-26T01:16:07;5.90;92.20
27803;DHT22;15182;48.174;11.562;2023-02-26T01:18:45;5.90;92.10
27803;DHT22;15182;48.174;11.562;2023-02-26T01:21:27;5.80;92.10
27803;DHT22;15182;48.174;11.562;2023-02-26T01:24:04;5.80;92.20
27803;DHT22;15182;48.174;11.562;2023-02-26T01:26:38;5.80;92.20
27803;DHT22;15182;48.174;11.562;2023-02-26T01:29:13;5.80;92.20
27803;DHT22;15182;48.174;11.562;2023-02-26T01:31:51;5.80;92.10
27803;DHT22;15182;48.174;11.562;2023-02-26T01:34:30;5.80;92.20
27803;DHT22;15182;48.174;11.562;2023-02-26T01:37:12;5.80;92.20
27803;DHT22;15182;48.174;11.562;2023-02-26T01:43:05;5.80;92.20
27803;DHT22;15182;48.174;11.562;2023-02-26T01:45:47;5.80;92.10
27803;DHT22;15182;48.174;11.562;2023-02-26T01:48:33;5.80;92.10
27803;DHT22;15182;48.174;11.562;2023-02-26T01:51:07;5.80;92.00
27803;DHT22;15182;48.174;11.562;2023-02-26T01:53:39;5.70;92.00
27803;DHT22;15182;48.174;11.562;2023-02-26T01:56:14;5.70;92.00
27803;DHT22;15182;48.174;11.562;2023-02-26T01:58:49;5.70;92.00
27803;DHT22;15182;48.174;11.562;2023-02-26T02:01:23;5.70;92.00
27803;DHT22;15182;48.174;11.562;2023-02-26T02:03:54;5.70;92.00
27803;DHT22;15182;48.174;11.562;2023-02-26T02:06:28;5.70;92.00
27803;DHT22;15182;48.174;11.562;2023-02-26T02:09:03;5.70;92.00
27803;DHT22;15182;48.174;11.562;2023-02-26T02:11:36;5.70;91.90
27803;DHT22;15182;48.174;11.562;2023-02-26T02:14:17;5.70;91.90
27803;DHT22;15182;48.174;11.562;2023-02-26T02:16:58;5.70;91.70
27803;DHT22;15182;48.174;11.562;2023-02-26T02:23:09;5.60;91.60
27803;DHT22;15182;48.174;11.562;2023-02-26T02:29:35;5.60;91.50
27803;DHT22;15182;48.174;11.562;2023-02-26T02:32:18;5.60;91.50
27803;DHT22;15182;48.174;11.562;2023-02-26T02:34:56;5.60;91.60
27803;DHT22;15182;48.174;11.562;2023-02-26T02:37:35;5.50;91.60
27803;DHT22;15182;48.174;11.562;2023-02-26T02:40:10;5.50;91.60
27803;DHT22;15182;48.174;11.562;2023-02-26T02:42:45;5.60;91.80
27803;DHT22;15182;48.174;11.562;2023-02-26T02:45:28;5.60;91.80
27803;DHT22;15182;48.174;11.562;2023-02-26T02:48:06;5.60;91.80
27803;DHT22;15182;48.174;11.562;2023-02-26T02:50:41;5.60;91.70
27803;DHT22;15182;48.174;11.562;2023-02-26T02:53:16;5.60;91.70
27803;DHT22;15182;48.174;11.562;2023-02-26T02:55:56;5.60;91.60
27803;DHT22;15182;48.174;11.562;2023-02-26T02:58:36;5.60;91.70
27803;DHT22;15182;48.174;11.562;2023-02-26T03:01:14;5.60;91.80
27803;DHT22;15182;48.174;11.562;2023-02-26T03:03:54;5.60;91.80
27803;DHT22;15182;48.174;11.562;2023-02-26T03:06:29;5.60;91.70
27803;DHT22;15182;48.174;11.562;2023-02-26T03:09:01;5.60;91.70
27803;DHT22;15182;48.174;11.562;2023-02-26T03:11:36;5.60;91.60
27803;DHT22;15182;48.174;11.562;2023-02-26T03:14:08;5.50;91.50
27803;DHT22;15182;48.174;11.562;2023-02-26T03:16:54;5.50;91.60
27803;DHT22;15182;48.174;11.562;2023-02-26T03:19:35;5.50;91.50
27803;DHT22;15182;48.174;11.562;2023-02-26T03:22:14;5.50;91.50
27803;DHT22;15182;48.174;11.562;2023-02-26T03:25:16;5.50;91.30
27803;DHT22;15182;48.174;11.562;2023-02-26T03:27:54;5.50;91.20
27803;DHT22;15182;48.174;11.562;2023-02-26T03:30:36;5.40;91.30
27803;DHT22;15182;48.174;11.562;2023-02-26T03:33:12;5.40;91.30
27803;DHT22;15182;48.174;11.562;2023-02-26T03:35:50;5.40;91.20
27803;DHT22;15182;48.174;11.562;2023-02-26T03:38:32;5.40;91.20
27803;DHT22;15182;48.174;11.562;2023-02-26T03:41:10;5.40;91.30
27803;DHT22;15182;48.174;11.562;2023-02-26T03:43:48;5.30;91.10
27803;DHT22;15182;48.174;11.562;2023-02-26T03:46:28;5.30;91.10
27803;DHT22;15182;48.174;11.562;2023-02-26T03:49:06;5.30;91.00
27803;DHT22;15182;48.174;11.562;2023-02-26T03:51:43;5.30;91.10
27803;DHT22;15182;48.174;11.562;2023-02-26T03:54:40;5.30;91.20
27803;DHT22;15182;48.174;11.562;2023-02-26T03:57:33;5.30;91.10
27803;DHT22;15182;48.174;11.562;2023-02-26T04:00:31;5.30;91.10
27803;DHT22;15182;48.174;11.562;2023-02-26T04:03:06;5.20;91.20
27803;DHT22;15182;48.174;11.562;2023-02-26T04:05:46;5.20;91.20
27803;DHT22;15182;48.174;11.562;2023-02-26T04:08:22;5.20;91.10
27803;DHT22;15182;48.174;11.562;2023-02-26T04:10:55;5.20;91.00
27803;DHT22;15182;48.174;11.562;2023-02-26T04:13:32;5.20;91.00
27803;DHT22;15182;48.174;11.562;2023-02-26T04:16:03;5.20;91.00
27803;DHT22;15182;48.174;11.562;2023-02-26T04:18:37;5.20;91.00
27803;DHT22;15182;48.174;11.562;2023-02-26T04:21:12;5.20;91.00
27803;DHT22;15182;48.174;11.562;2023-02-26T04:23:46;5.10;91.00
27803;DHT22;15182;48.174;11.562;2023-02-26T04:26:17;5.10;91.00
27803;DHT22;15182;48.174;11.562;2023-02-26T04:28:49;5.10;91.00
27803;DHT22;15182;48.174;11.562;2023-02-26T04:31:21;5.10;91.00
27803;DHT22;15182;48.174;11.562;2023-02-26T04:33:52;5.10;91.00
27803;DHT22;15182;48.174;11.562;2023-02-26T04:36:23;5.10;90.90
27803;DHT22;15182;48.174;11.562;2023-02-26T04:38:56;5.00;90.90
27803;DHT22;15182;48.174;11.562;2023-02-26T04:41:28;5.00;90.90
27803;DHT22;15182;48.174;11.562;2023-02-26T04:43:59;5.00;90.90
27803;DHT22;15182;48.174;11.562;2023-02-26T04:46:33;5.00;90.90
27803;DHT22;15182;48.174;11.562;2023-02-26T04:49:04;5.00;90.90
27803;DHT22;15182;48.174;11.562;2023-02-26T04:51:38;5.00;91.00
27803;DHT22;15182;48.174;11.562;2023-02-26T04:54:12;5.00;90.90
27803;DHT22;15182;48.174;11.562;2023-02-26T04:56:45;5.00;90.80
27803;DHT22;15182;48.174;11.562;2023-02-26T04:59:17;4.90;90.80
27803;DHT22;15182;48.174;11.562;2023-02-26T05:01:50;4.90;90.80
27803;DHT22;15182;48.174;11.562;2023-02-26T05:04:22;4.90;90.80
27803;DHT22;15182;48.174;11.562;2023-02-26T05:06:56;4.90;90.80
27803;DHT22;15182;48.174;11.562;2023-02-26T05:09:29;4.90;90.70
27803;DHT22;15182;48.174;11.562;2023-02-26T05:12:01;4.90;90.70
27803;DHT22;15182;48.174;11.562;2023-02-26T05:14:33;4.80;90.60
27803;DHT22;15182;48.174;11.562;2023-02-26T05:17:04;4.80;90.50
27803;DHT22;15182;48.174;11.562;2023-02-26T05:19:35;4.80;90.50
27803;DHT22;15182;48.174;11.562;2023-02-26T05:22:11;4.70;90.50
27803;DHT22;15182;48.174;11.562;2023-02-26T05:24:44;4.80;90.50
27803;DHT22;15182;48.174;11.562;2023-02-26T05:27:15;4.70;90.40
27803;DHT22;15182;48.174;11.562;2023-02-26T05:29:50;4.70;90.50
27803;DHT22;15182;48.174;11.562;2023-02-26T05:32:21;4.60;90.40
27803;DHT22;15182;48.174;11.562;2023-02-26T05:34:54;4.60;90.40
27803;DHT22;15182;48.174;11.562;2023-02-26T05:37:26;4.60;90.40
27803;DHT22;15182;48.174;11.562;2023-02-26T05:39:59;4.60;90.40
27803;DHT22;15182;48.174;11.562;2023-02-26T05:45:03;4.50;90.40
27803;DHT22;15182;48.174;11.562;2023-02-26T05:47:36;4.50;90.40
27803;DHT22;15182;48.174;11.562;2023-02-26T05:50:08;4.50;90.40
27803;DHT22;15182;48.174;11.562;2023-02-26T05:52:41;4.40;90.30
27803;DHT22;15182;48.174;11.562;2023-02-26T05:55:14;4.40;90.40
27803;DHT22;15182;48.174;11.562;2023-02-26T05:57:47;4.40;90.30
27803;DHT22;15182;48.174;11.562;2023-02-26T06:00:20;4.40;90.20
27803;DHT22;15182;48.174;11.562;2023-02-26T06:02:53;4.30;90.30
27803;DHT22;15182;48.174;11.562;2023-02-26T06:05:24;4.30;90.20
27803;DHT22;15182;48.174;11.562;2023-02-26T06:07:57;4.30;90.20
27803;DHT22;15182;48.174;11.562;2023-02-26T06:10:30;4.30;90.30
27803;DHT22;15182;48.174;11.562;2023-02-26T06:13:01;4.30;90.20
27803;DHT22;15182;48.174;11.562;2023-02-26T06:15:33;4.20;90.20
27803;DHT22;15182;48.174;11.562;2023-02-26T06:18:04;4.20;90.20
27803;DHT22;15182;48.174;11.562;2023-02-26T06:20:35;4.20;90.20
27803;DHT22;15182;48.174;11.562;2023-02-26T06:23:06;4.20;90.20
27803;DHT22;15182;48.174;11.562;2023-02-26T06:25:39;4.20;90.10
27803;DHT22;15182;48.174;11.562;2023-02-26T06:28:10;4.10;90.20
27803;DHT22;15182;48.174;11.562;2023-02-26T06:30:41;4.10;90.20
27803;DHT22;15182;48.174;11.562;2023-02-26T06:33:13;4.10;90.20
27803;DHT22;15182;48.174;11.562;2023-02-26T06:35:44;4.10;90.20
27803;DHT22;15182;48.174;11.562;2023-02-26T06:38:16;4.10;90.20
27803;DHT22;15182;48.174;11.562;2023-02-26T06:40:49;4.10;90.20
27803;DHT22;15182;48.174;11.562;2023-02-26T06:43:20;4.10;90.30
27803;DHT22;15182;48.174;11.562;2023-02-26T06:45:59;4.10;90.30
27803;DHT22;15182;48.174;11.562;2023-02-26T06:48:30;4.10;90.20
27803;DHT22;15182;48.174;11.562;2023-02-26T06:51:04;4.10;90.30
27803;DHT22;15182;48.174;11.562;2023-02-26T06:53:36;4.10;90.20
27803;DHT22;15182;48.174;11.562;2023-02-26T06:56:09;4.20;90.20
27803;DHT22;15182;48.174;11.562;2023-02-26T06:58:40;4.10;90.20
27803;DHT22;15182;48.174;11.562;2023-02-26T07:01:11;4.20;90.20
27803;DHT22;15182;48.174;11.562;2023-02-26T07:03:42;4.20;90.20
27803;DHT22;15182;48.174;11.562;2023-02-26T07:06:14;4.20;90.10
27803;DHT22;15182;48.174;11.562;2023-02-26T07:08:45;4.20;90.10
27803;DHT22;15182;48.174;11.562;2023-02-26T07:11:17;4.20;89.70
27803;DHT22;15182;48.174;11.562;2023-02-26T07:13:49;4.20;90.10
27803;DHT22;15182;48.174;11.562;2023-02-26T07:16:20;4.20;90.10
27803;DHT22;15182;48.174;11.562;2023-02-26T07:18:53;4.30;90.20
27803;DHT22;15182;48.174;11.562;2023-02-26T07:21:24;4.30;90.30
27803;DHT22;15182;48.174;11.562;2023-02-26T07:23:57;4.40;90.20
27803;DHT22;15182;48.174;11.562;2023-02-26T07:26:30;4.40;90.20
27803;DHT22;15182;48.174;11.562;2023-02-26T07:29:03;4.40;90.30
27803;DHT22;15182;48.174;11.562;2023-02-26T07:31:34;4.40;90.20
27803;DHT22;15182;48.174;11.562;2023-02-26T07:34:07;4.50;90.20
27803;DHT22;15182;48.174;11.562;2023-02-26T07:36:39;4.50;90.20
27803;DHT22;15182;48.174;11.562;2023-02-26T07:39:09;4.50;90.20
27803;DHT22;15182;48.174;11.562;2023-02-26T07:41:41;4.60;90.20
27803;DHT22;15182;48.174;11.562;2023-02-26T07:44:16;4.60;90.20
27803;DHT22;15182;48.174;11.562;2023-02-26T07:46:47;4.60;90.10
27803;DHT22;15182;48.174;11.562;2023-02-26T07:49:18;4.60;90.10
27803;DHT22;15182;48.174;11.562;2023-02-26T07:51:49;4.70;90.10
27803;DHT22;15182;48.174;11.562;2023-02-26T07:54:21;4.70;90.00
27803;DHT22;15182;48.174;11.562;2023-02-26T07:56:53;4.70;90.00
27803;DHT22;15182;48.174;11.562;2023-02-26T07:59:25;4.70;90.00
27803;DHT22;15182;48.174;11.562;2023-02-26T08:01:56;4.80;90.00
27803;DHT22;15182;48.174;11.562;2023-02-26T08:04:28;4.80;89.90
27803;DHT22;15182;48.174;11.562;2023-02-26T08:07:01;4.80;89.80
27803;DHT22;15182;48.174;11.562;2023-02-26T08:09:32;4.80;89.60
27803;DHT22;15182;48.174;11.562;2023-02-26T08:12:05;4.80;89.60
27803;DHT22;15182;48.174;11.562;2023-02-26T08:14:36;4.80;89.40
27803;DHT22;15182;48.174;11.562;2023-02-26T08:17:10;4.80;89.40
27803;DHT22;15182;48.174;11.562;2023-02-26T08:19:41;4.80;89.40
27803;DHT22;15182;48.174;11.562;2023-02-26T08:22:14;4.80;89.40
27803;DHT22;15182;48.174;11.562;2023-02-26T08:24:46;4.80;89.40
27803;DHT22;15182;48.174;11.562;2023-02-26T08:27:18;4.80;89.80
27803;DHT22;15182;48.174;11.562;2023-02-26T08:29:49;4.80;90.00
27803;DHT22;15182;48.174;11.562;2023-02-26T08:32:21;4.80;89.90
27803;DHT22;15182;48.174;11.562;2023-02-26T08:34:54;4.80;89.80
27803;DHT22;15182;48.174;11.562;2023-02-26T08:37:25;4.80;89.70
27803;DHT22;15182;48.174;11.562;2023-02-26T08:39:57;4.80;89.60
27803;DHT22;15182;48.174;11.562;2023-02-26T08:42:30;4.80;89.40
27803;DHT22;15182;48.174;11.562;2023-02-26T08:45:01;4.70;89.60
27803;DHT22;15182;48.174;11.562;2023-02-26T08:47:33;4.70;89.70
27803;DHT22;15182;48.174;11.562;2023-02-26T08:50:07;4.70;89.50
27803;DHT22;15182;48.174;11.562;2023-02-26T08:52:39;4.70;89.50
27803;DHT22;15182;48.174;11.562;2023-02-26T08:55:14;4.70;89.60
27803;DHT22;15182;48.174;11.562;2023-02-26T08:57:47;4.60;89.70
27803;DHT22;15182;48.174;11.562;2023-02-26T09:00:21;4.60;89.90
27803;DHT22;15182;48.174;11.562;2023-02-26T09:02:52;4.60;89.70
27803;DHT22;15182;48.174;11.562;2023-02-26T09:05:23;4.60;89.80
27803;DHT22;15182;48.174;11.562;2023-02-26T09:07:54;4.60;90.00
27803;DHT22;15182;48.174;11.562;2023-02-26T09:10:25;4.60;90.00
27803;DHT22;15182;48.174;11.562;2023-02-26T09:12:59;4.60;90.00
27803;DHT22;15182;48.174;11.562;2023-02-26T09:15:30;4.60;90.00
27803;DHT22;15182;48.174;11.562;2023-02-26T09:18:01;4.60;90.00
27803;DHT22;15182;48.174;11.562;2023-02-26T09:20:33;4.60;90.10
27803;DHT22;15182;48.174;11.562;2023-02-26T09:23:04;4.60;90.10
27803;DHT22;15182;48.174;11.562;2023-02-26T09:25:36;4.60;90.20
27803;DHT22;15182;48.174;11.562;2023-02-26T09:28:08;4.60;90.10
27803;DHT22;15182;48.174;11.562;2023-02-26T09:30:40;4.60;90.10
27803;DHT22;15182;48.174;11.562;2023-02-26T09:33:13;4.60;90.20
27803;DHT22;15182;48.174;11.562;2023-02-26T09:35:44;4.60;90.20
27803;DHT22;15182;48.174;11.562;2023-02-26T09:38:20;4.60;90.20
27803;DHT22;15182;48.174;11.562;2023-02-26T09:40:55;4.60;90.20
27803;DHT22;15182;48.174;11.562;2023-02-26T09:43:49;4.60;90.20
27803;DHT22;15182;48.174;11.562;2023-02-26T09:46:35;4.70;90.30
27803;DHT22;15182;48.174;11.562;2023-02-26T09:49:20;4.60;90.30
27803;DHT22;15182;48.174;11.562;2023-02-26T09:51:57;4.60;90.40
27803;DHT22;15182;48.174;11.562;2023-02-26T09:54:35;4.70;90.40
27803;DHT22;15182;48.174;11.562;2023-02-26T09:57:17;4.70;90.40
27803;DHT22;15182;48.174;11.562;2023-02-26T09:59:55;4.60;90.40
27803;DHT22;15182;48.174;11.562;2023-02-26T10:02:32;4.70;90.50
27803;DHT22;15182;48.174;11.562;2023-02-26T10:05:25;4.70;90.60
27803;DHT22;15182;48.174;11.562;2023-02-26T10:08:03;4.70;90.80
27803;DHT22;15182;48.174;11.562;2023-02-26T10:10:41;4.70;90.70
27803;DHT22;15182;48.174;11.562;2023-02-26T10:13:24;4.80;90.60
27803;DHT22;15182;48.174;11.562;2023-02-26T10:16:03;4.80;90.50
27803;DHT22;15182;48.174;11.562;2023-02-26T10:18:39;4.80;90.40
27803;DHT22;15182;48.174;11.562;2023-02-26T10:21:19;4.80;90.40
27803;DHT22;15182;48.174;11.562;2023-02-26T10:23:56;4.90;90.70
27803;DHT22;15182;48.174;11.562;2023-02-26T10:26:32;4.90;90.70
27803;DHT22;15182;48.174;11.562;2023-02-26T10:29:16;4.90;90.80
27803;DHT22;15182;48.174;11.562;2023-02-26T10:32:04;5.00;90.70
27803;DHT22;15182;48.174;11.562;2023-02-26T10:34:49;5.10;90.80
27803;DHT22;15182;48.174;11.562;2023-02-26T10:37:32;5.10;90.50
27803;DHT22;15182;48.174;11.562;2023-02-26T10:40:13;5.20;90.50
27803;DHT22;15182;48.174;11.562;2023-02-26T10:42:49;5.20;90.60
27803;DHT22;15182;48.174;11.562;2023-02-26T10:45:41;5.20;90.50
27803;DHT22;15182;48.174;11.562;2023-02-26T10:48:26;5.20;90.40
27803;DHT22;15182;48.174;11.562;2023-02-26T10:51:10;5.20;90.40
27803;DHT22;15182;48.174;11.562;2023-02-26T10:53:45;5.20;90.40
27803;DHT22;15182;48.174;11.562;2023-02-26T10:56:23;5.20;90.30
27803;DHT22;15182;48.174;11.562;2023-02-26T10:58:56;5.20;90.30
27803;DHT22;15182;48.174;11.562;2023-02-26T11:01:31;5.20;90.30
27803;DHT22;15182;48.174;11.562;2023-02-26T11:04:10;5.20;90.30
27803;DHT22;15182;48.174;11.562;2023-02-26T11:06:44;5.20;90.30
27803;DHT22;15182;48.174;11.562;2023-02-26T11:09:22;5.20;90.30
27803;DHT22;15182;48.174;11.562;2023-02-26T11:12:00;5.20;90.30
27803;DHT22;15182;48.174;11.562;2023-02-26T11:14:36;5.20;90.40
27803;DHT22;15182;48.174;11.562;2023-02-26T11:17:11;5.30;90.50
27803;DHT22;15182;48.174;11.562;2023-02-26T11:19:51;5.30;90.60
27803;DHT22;15182;48.174;11.562;2023-02-26T11:22:29;5.30;90.50
27803;DHT22;15182;48.174;11.562;2023-02-26T11:25:06;5.40;90.40
27803;DHT22;15182;48.174;11.562;2023-02-26T11:27:40;5.40;90.40
27803;DHT22;15182;48.174;11.562;2023-02-26T11:30:17;5.40;90.40
27803;DHT22;15182;48.174;11.562;2023-02-26T11:32:52;5.40;90.40
27803;DHT22;15182;48.174;11.562;2023-02-26T11:35:27;5.40;90.40
27803;DHT22;15182;48.174;11.562;2023-02-26T11:38:03;5.40;90.60
27803;DHT22;15182;48.174;11.562;2023-02-26T11:40:39;5.40;90.70
27803;DHT22;15182;48.174;11.562;2023-02-26T11:43:16;5.50;90.80
27803;DHT22;15182;48.174;11.562;2023-02-26T11:45:51;5.50;90.80
27803;DHT22;15182;48.174;11.562;2023-02-26T11:48:31;5.60;90.70
27803;DHT22;15182;48.174;11.562;2023-02-26T11:51:11;5.50;90.70
27803;DHT22;15182;48.174;11.562;2023-02-26T11:53:51;5.50;90.70
27803;DHT22;15182;48.174;11.562;2023-02-26T11:56:33;5.50;90.70
27803;DHT22;15182;48.174;11.562;2023-02-26T11:59:15;5.60;90.80
27803;DHT22;15182;48.174;11.562;2023-02-26T12:01:48;5.50;90.70
27803;DHT22;15182;48.174;11.562;2023-02-26T12:04:23;5.50;90.70
27803;DHT22;15182;48.174;11.562;2023-02-26T12:06:57;5.50;90.70
27803;DHT22;15182;48.174;11.562;2023-02-26T12:09:30;5.50;90.90
27803;DHT22;15182;48.174;11.562;2023-02-26T12:12:08;5.50;91.40
27803;DHT22;15182;48.174;11.562;2023-02-26T12:14:49;5.60;91.00
27803;DHT22;15182;48.174;11.562;2023-02-26T12:17:48;5.70;91.10
27803;DHT22;15182;48.174;11.562;2023-02-26T12:20:42;5.90;91.30
27803;DHT22;15182;48.174;11.562;2023-02-26T12:23:24;6.10;90.90
27803;DHT22;15182;48.174;11.562;2023-02-26T12:26:12;6.20;90.60
27803;DHT22;15182;48.174;11.562;2023-02-26T12:29:14;6.40;90.50
27803;DHT22;15182;48.174;11.562;2023-02-26T12:32:20;6.60;90.40
27803;DHT22;15182;48.174;11.562;2023-02-26T12:35:28;6.80;90.80
27803;DHT22;15182;48.174;11.562;2023-02-26T12:38:12;7.00;90.10
27803;DHT22;15182;48.174;11.562;2023-02-26T12:41:23;7.20;89.90
27803;DHT22;15182;48.174;11.562;2023-02-26T12:44:03;7.30;89.00
27803;DHT22;15182;48.174;11.562;2023-02-26T12:46:51;7.40;89.80
27803;DHT22;15182;48.174;11.562;2023-02-26T12:49:40;7.50;89.30
27803;DHT22;15182;48.174;11.562;2023-02-26T12:52:34;7.60;88.90
27803;DHT22;15182;48.174;11.562;2023-02-26T12:55:28;7.70;88.20
27803;DHT22;15182;48.174;11.562;2023-02-26T12:58:29;7.80;88.00
27803;DHT22;15182;48.174;11.562;2023-02-26T13:01:24;7.90;87.20
27803;DHT22;15182;48.174;11.562;2023-02-26T13:04:22;7.90;86.60
27803;DHT22;15182;48.174;11.562;2023-02-26T13:07:09;7.80;86.80
27803;DHT22;15182;48.174;11.562;2023-02-26T13:09:54;7.80;86.70
27803;DHT22;15182;48.174;11.562;2023-02-26T13:12:35;7.70;86.20
27803;DHT22;15182;48.174;11.562;2023-02-26T13:15:28;7.70;86.60
27803;DHT22;15182;48.174;11.562;2023-02-26T13:18:13;7.50;86.80
27803;DHT22;15182;48.174;11.562;2023-02-26T13:20:53;7.40;87.10
27803;DHT22;15182;48.174;11.562;2023-02-26T13:23:30;7.20;87.50
27803;DHT22;15182;48.174;11.562;2023-02-26T13:26:08;7.10;87.50
27803;DHT22;15182;48.174;11.562;2023-02-26T13:28:43;6.90;87.70
27803;DHT22;15182;48.174;11.562;2023-02-26T13:31:20;6.80;88.30
27803;DHT22;15182;48.174;11.562;2023-02-26T13:33:54;6.80;88.60
27803;DHT22;15182;48.174;11.562;2023-02-26T13:36:30;6.80;88.40
27803;DHT22;15182;48.174;11.562;2023-02-26T13:39:14;6.80;87.90
27803;DHT22;15182;48.174;11.562;2023-02-26T13:41:56;6.80;87.90
27803;DHT22;15182;48.174;11.562;2023-02-26T13:44:33;6.70;88.20
27803;DHT22;15182;48.174;11.562;2023-02-26T13:50:28;6.60;88.60
27803;DHT22;15182;48.174;11.562;2023-02-26T13:56:12;6.50;88.80
27803;DHT22;15182;48.174;11.562;2023-02-26T13:58:47;6.40;88.50
27803;DHT22;15182;48.174;11.562;2023-02-26T14:01:25;6.40;88.40
27803;DHT22;15182;48.174;11.562;2023-02-26T14:04:21;6.30;88.50
27803;DHT22;15182;48.174;11.562;2023-02-26T14:06:55;6.30;88.00
27803;DHT22;15182;48.174;11.562;2023-02-26T14:12:24;6.20;87.20
27803;DHT22;15182;48.174;11.562;2023-02-26T14:15:38;6.20;87.30
27803;DHT22;15182;48.174;11.562;2023-02-26T14:18:23;6.20;86.60
27803;DHT22;15182;48.174;11.562;2023-02-26T14:21:34;6.10;87.10
27803;DHT22;15182;48.174;11.562;2023-02-26T14:24:12;6.10;86.80
27803;DHT22;15182;48.174;11.562;2023-02-26T14:26:48;6.10;87.10
27803;DHT22;15182;48.174;11.562;2023-02-26T14:29:40;6.10;86.90
27803;DHT22;15182;48.174;11.562;2023-02-26T14:32:25;6.00;86.60
27803;DHT22;15182;48.174;11.562;2023-02-26T14:35:02;6.00;86.40
27803;DHT22;15182;48.174;11.562;2023-02-26T14:37:40;6.00;86.70
27803;DHT22;15182;48.174;11.562;2023-02-26T14:40:17;6.00;86.90
27803;DHT22;15182;48.174;11.562;2023-02-26T14:42:54;6.00;87.00
27803;DHT22;15182;48.174;11.562;2023-02-26T14:45:31;6.10;86.90
27803;DHT22;15182;48.174;11.562;2023-02-26T14:48:10;6.10;86.70
27803;DHT22;15182;48.174;11.562;2023-02-26T14:50:57;6.10;86.10
27803;DHT22;15182;48.174;11.562;2023-02-26T14:53:53;6.10;85.70
27803;DHT22;15182;48.174;11.562;2023-02-26T14:56:46;6.10;85.80
27803;DHT22;15182;48.174;11.562;2023-02-26T14:59:31;6.20;85.80
27803;DHT22;15182;48.174;11.562;2023-02-26T15:02:20;6.10;85.70
27803;DHT22;15182;48.174;11.562;2023-02-26T15:05:28;6.20;86.10
27803;DHT22;15182;48.174;11.562;2023-02-26T15:11:16;6.20;86.20
27803;DHT22;15182;48.174;11.562;2023-02-26T15:16:59;6.30;85.80
27803;DHT22;15182;48.174;11.562;2023-02-26T15:19:44;6.30;86.00
27803;DHT22;15182;48.174;11.562;2023-02-26T15:22:30;6.30;86.10
27803;DHT22;15182;48.174;11.562;2023-02-26T15:25:12;6.20;86.40
27803;DHT22;15182;48.174;11.562;2023-02-26T15:27:47;6.20;86.70
27803;DHT22;15182;48.174;11.562;2023-02-26T15:30:19;6.20;86.90
27803;DHT22;15182;48.174;11.562;2023-02-26T15:32:57;6.20;87.10
27803;DHT22;15182;48.174;11.562;2023-02-26T15:35:32;6.20;87.10
27803;DHT22;15182;48.174;11.562;2023-02-26T15:38:04;6.20;87.80
27803;DHT22;15182;48.174;11.562;2023-02-26T15:40:37;6.20;86.80
27803;DHT22;15182;48.174;11.562;2023-02-26T15:43:12;6.10;86.70
27803;DHT22;15182;48.174;11.562;2023-02-26T15:45:49;6.10;86.80
27803;DHT22;15182;48.174;11.562;2023-02-26T15:48:23;6.10;87.00
27803;DHT22;15182;48.174;11.562;2023-02-26T15:50:59;6.10;87.40
27803;DHT22;15182;48.174;11.562;2023-02-26T15:53:35;6.10;87.30
27803;DHT22;15182;48.174;11.562;2023-02-26T15:56:10;6.10;87.00
27803;DHT22;15182;48.174;11.562;2023-02-26T15:58:51;6.10;87.70
27803;DHT22;15182;48.174;11.562;2023-02-26T16:01:27;6.10;86.30
27803;DHT22;15182;48.174;11.562;2023-02-26T16:04:04;6.10;86.00
27803;DHT22;15182;48.174;11.562;2023-02-26T16:06:42;6.00;85.80
27803;DHT22;15182;48.174;11.562;2023-02-26T16:09:18;6.00;86.60
27803;DHT22;15182;48.174;11.562;2023-02-26T16:11:57;6.00;85.90
27803;DHT22;15182;48.174;11.562;2023-02-26T16:14:37;5.90;85.80
27803;DHT22;15182;48.174;11.562;2023-02-26T16:17:17;6.00;85.80
27803;DHT22;15182;48.174;11.562;2023-02-26T16:19:54;5.90;85.70
27803;DHT22;15182;48.174;11.562;2023-02-26T16:22:29;5.90;85.60
27803;DHT22;15182;48.174;11.562;2023-02-26T16:25:07;5.90;85.40
27803;DHT22;15182;48.174;11.562;2023-02-26T16:27:44;5.90;85.10
27803;DHT22;15182;48.174;11.562;2023-02-26T16:30:26;5.90;85.20
27803;DHT22;15182;48.174;11.562;2023-02-26T16:33:04;5.90;85.20
27803;DHT22;15182;48.174;11.562;2023-02-26T16:35:41;5.80;85.60
27803;DHT22;15182;48.174;11.562;2023-02-26T16:38:19;5.80;85.90
27803;DHT22;15182;48.174;11.562;2023-02-26T16:40:56;5.80;86.10
27803;DHT22;15182;48.174;11.562;2023-02-26T16:43:50;5.80;86.50
27803;DHT22;15182;48.174;11.562;2023-02-26T16:46:30;5.80;86.80
27803;DHT22;15182;48.174;11.562;2023-02-26T16:49:07;5.70;86.90
27803;DHT22;15182;48.174;11.562;2023-02-26T16:51:44;5.70;87.00
27803;DHT22;15182;48.174;11.562;2023-02-26T16:54:20;5.70;87.00
27803;DHT22;15182;48.174;11.562;2023-02-26T16:57:06;5.60;87.10
27803;DHT22;15182;48.174;11.562;2023-02-26T16:59:49;5.60;87.60
27803;DHT22;15182;48.174;11.562;2023-02-26T17:02:26;5.60;87.70